sensor_id;sensor_type;location;lat;lon;timestamp;temperature;humidity
13496;DHT22;6820;49.374;8.452;2023-06-14T00:02:47;22.46;85.71
13496;DHT22;6820;49.374;8.452;2023-06-14T00:06:49;22.45;86.47
13496;DHT22;6820;49.374;8.452;2023-06-14T00:10:52;22.44;87.11
13496;DHT22;6820;49.374;8.452;2023-06-14T00:14:53;22.39;88.01
13496;DHT22;6820;49.374;8.452;2023-06-14T00:18:55;22.19;91.40
13496;DHT22;6820;49.374;8.452;2023-06-14T00:22:57;22.02;92.65
13496;DHT22;6820;49.374;8.452;2023-06-14T00:26:59;21.63;93.55
13496;DHT22;6820;49.374;8.452;2023-06-14T00:31:02;21.15;94.23
13496;DHT22;6820;49.374;8.452;2023-06-14T00:35:04;20.98;93.82
13496;DHT22;6820;49.374;8.452;2023-06-14T00:39:06;20.81;93.97
13496;DHT22;6820;49.374;8.452;2023-06-14T00:43:09;20.79;93.77
13496;DHT22;6820;49.374;8.452;2023-06-14T00:47:11;20.82;93.91
13496;DHT22;6820;49.374;8.452;2023-06-14T00:51:12;20.79;93.77
13496;DHT22;6820;49.374;8.452;2023-06-14T00:55:14;20.90;93.91
13496;DHT22;6820;49.374;8.452;2023-06-14T00:59:16;20.64;94.57
13496;DHT22;6820;49.374;8.452;2023-06-14T01:03:18;20.48;95.62
13496;DHT22;6820;49.374;8.452;2023-06-14T01:11:49;20.31;96.47
13496;DHT22;6820;49.374;8.452;2023-06-14T01:15:56;20.31;96.31
13496;DHT22;6820;49.374;8.452;2023-06-14T01:19:58;20.33;96.11
13496;DHT22;6820;49.374;8.452;2023-06-14T01:24:02;20.20;96.51
13496;DHT22;6820;49.374;8.452;2023-06-14T01:28:05;20.12;97.31
13496;DHT22;6820;49.374;8.452;2023-06-14T01:32:12;20.05;97.52
13496;DHT22;6820;49.374;8.452;2023-06-14T01:36:15;20.01;97.46
13496;DHT22;6820;49.374;8.452;2023-06-14T01:40:17;19.95;97.26
13496;DHT22;6820;49.374;8.452;2023-06-14T01:44:21;20.01;97.16
13496;DHT22;6820;49.374;8.452;2023-06-14T01:48:24;20.07;96.96
13496;DHT22;6820;49.374;8.452;2023-06-14T01:52:26;20.00;97.46
13496;DHT22;6820;49.374;8.452;2023-06-14T01:56:27;19.90;97.96
13496;DHT22;6820;49.374;8.452;2023-06-14T02:00:29;19.85;97.76
13496;DHT22;6820;49.374;8.452;2023-06-14T02:04:31;19.86;97.71
13496;DHT22;6820;49.374;8.452;2023-06-14T02:08:32;19.68;98.31
13496;DHT22;6820;49.374;8.452;2023-06-14T02:12:34;19.60;98.51
13496;DHT22;6820;49.374;8.452;2023-06-14T02:16:36;19.62;98.76
13496;DHT22;6820;49.374;8.452;2023-06-14T02:20:38;19.53;98.96
13496;DHT22;6820;49.374;8.452;2023-06-14T02:24:41;19.39;99.46
13496;DHT22;6820;49.374;8.452;2023-06-14T02:28:43;19.40;99.31
13496;DHT22;6820;49.374;8.452;2023-06-14T02:32:44;19.45;99.21
13496;DHT22;6820;49.374;8.452;2023-06-14T02:36:46;19.35;99.26
13496;DHT22;6820;49.374;8.452;2023-06-14T02:40:49;19.34;99.41
13496;DHT22;6820;49.374;8.452;2023-06-14T02:44:50;19.31;99.61
13496;DHT22;6820;49.374;8.452;2023-06-14T02:48:54;19.31;99.71
13496;DHT22;6820;49.374;8.452;2023-06-14T02:52:56;19.23;99.91
13496;DHT22;6820;49.374;8.452;2023-06-14T02:56:58;19.17;99.99
13496;DHT22;6820;49.374;8.452;2023-06-14T03:01:00;19.05;99.99
13496;DHT22;6820;49.374;8.452;2023-06-14T03:05:05;19.02;99.99
13496;DHT22;6820;49.374;8.452;2023-06-14T03:09:09;18.99;99.99
13496;DHT22;6820;49.374;8.452;2023-06-14T03:13:14;18.91;99.99
13496;DHT22;6820;49.374;8.452;2023-06-14T03:17:18;18.90;99.99
13496;DHT22;6820;49.374;8.452;2023-06-14T03:21:21;18.89;99.99
13496;DHT22;6820;49.374;8.452;2023-06-14T03:25:25;18.79;99.99
13496;DHT22;6820;49.374;8.452;2023-06-14T03:29:27;18.75;99.99
13496;DHT22;6820;49.374;8.452;2023-06-14T03:33:29;18.54;99.99
13496;DHT22;6820;49.374;8.452;2023-06-14T03:37:31;18.44;99.99
13496;DHT22;6820;49.374;8.452;2023-06-14T03:41:33;18.41;99.99
13496;DHT22;6820;49.374;8.452;2023-06-14T03:45:36;18.39;99.99
13496;DHT22;6820;49.374;8.452;2023-06-14T03:49:39;18.29;99.99
13496;DHT22;6820;49.374;8.452;2023-06-14T03:53:41;18.11;99.99
13496;DHT22;6820;49.374;8.452;2023-06-14T03:58:03;18.02;99.99
13496;DHT22;6820;49.374;8.452;2023-06-14T04:02:05;17.99;99.99
13496;DHT22;6820;49.374;8.452;2023-06-14T04:06:07;17.99;99.99
13496;DHT22;6820;49.374;8.452;2023-06-14T04:10:09;18.04;99.99
13496;DHT22;6820;49.374;8.452;2023-06-14T04:14:12;18.04;99.99
13496;DHT22;6820;49.374;8.452;2023-06-14T04:18:14;17.98;99.99
13496;DHT22;6820;49.374;8.452;2023-06-14T04:22:15;18.05;99.99
13496;DHT22;6820;49.374;8.452;2023-06-14T04:26:18;18.07;99.99
13496;DHT22;6820;49.374;8.452;2023-06-14T04:30:21;18.10;99.99
13496;DHT22;6820;49.374;8.452;2023-06-14T04:34:29;18.07;99.99
13496;DHT22;6820;49.374;8.452;2023-06-14T04:38:37;18.09;99.99
13496;DHT22;6820;49.374;8.452;2023-06-14T04:42:39;18.13;99.99
13496;DHT22;6820;49.374;8.452;2023-06-14T04:46:43;18.23;99.99
13496;DHT22;6820;49.374;8.452;2023-06-14T04:50:53;18.32;99.99
13496;DHT22;6820;49.374;8.452;2023-06-14T04:54:55;18.35;99.99
13496;DHT22;6820;49.374;8.452;2023-06-14T04:58:58;18.41;99.99
13496;DHT22;6820;49.374;8.452;2023-06-14T05:03:00;18.47;99.99
13496;DHT22;6820;49.374;8.452;2023-06-14T05:07:03;18.59;99.99
13496;DHT22;6820;49.374;8.452;2023-06-14T05:11:04;18.69;99.99
13496;DHT22;6820;49.374;8.452;2023-06-14T05:15:06;18.76;99.99
13496;DHT22;6820;49.374;8.452;2023-06-14T05:19:10;18.83;99.99
13496;DHT22;6820;49.374;8.452;2023-06-14T05:23:12;18.87;99.99
13496;DHT22;6820;49.374;8.452;2023-06-14T05:27:17;18.99;99.99
13496;DHT22;6820;49.374;8.452;2023-06-14T05:31:18;19.05;99.99
13496;DHT22;6820;49.374;8.452;2023-06-14T05:35:20;19.10;99.99
13496;DHT22;6820;49.374;8.452;2023-06-14T05:39:23;19.20;99.99
13496;DHT22;6820;49.374;8.452;2023-06-14T05:43:25;19.28;99.99
13496;DHT22;6820;49.374;8.452;2023-06-14T05:47:27;19.42;99.99
13496;DHT22;6820;49.374;8.452;2023-06-14T05:51:29;19.55;99.99
13496;DHT22;6820;49.374;8.452;2023-06-14T05:55:31;19.67;99.99
13496;DHT22;6820;49.374;8.452;2023-06-14T05:59:33;19.78;99.99
13496;DHT22;6820;49.374;8.452;2023-06-14T06:03:35;19.89;99.99
13496;DHT22;6820;49.374;8.452;2023-06-14T06:07:37;19.98;99.99
13496;DHT22;6820;49.374;8.452;2023-06-14T06:16:08;20.19;99.99
13496;DHT22;6820;49.374;8.452;2023-06-14T06:20:10;20.30;99.82
13496;DHT22;6820;49.374;8.452;2023-06-14T06:24:13;20.34;98.62
13496;DHT22;6820;49.374;8.452;2023-06-14T06:28:15;20.44;98.57
13496;DHT22;6820;49.374;8.452;2023-06-14T06:32:17;20.56;98.17
13496;DHT22;6820;49.374;8.452;2023-06-14T06:36:18;20.61;97.57
13496;DHT22;6820;49.374;8.452;2023-06-14T06:40:21;20.72;97.72
13496;DHT22;6820;49.374;8.452;2023-06-14T06:44:23;20.83;97.52
13496;DHT22;6820;49.374;8.452;2023-06-14T06:48:24;20.91;97.58
13496;DHT22;6820;49.374;8.452;2023-06-14T06:52:26;21.01;97.17
13496;DHT22;6820;49.374;8.452;2023-06-14T06:56:27;21.12;97.08
13496;DHT22;6820;49.374;8.452;2023-06-14T07:00:29;21.19;95.73
13496;DHT22;6820;49.374;8.452;2023-06-14T07:04:31;21.30;96.03
13496;DHT22;6820;49.374;8.452;2023-06-14T07:08:33;21.42;96.18
13496;DHT22;6820;49.374;8.452;2023-06-14T07:12:35;21.51;95.98
13496;DHT22;6820;49.374;8.452;2023-06-14T07:16:40;21.58;95.78
13496;DHT22;6820;49.374;8.452;2023-06-14T07:20:42;21.67;95.14
13496;DHT22;6820;49.374;8.452;2023-06-14T07:24:44;21.77;95.14
13496;DHT22;6820;49.374;8.452;2023-06-14T07:28:46;21.90;94.89
13496;DHT22;6820;49.374;8.452;2023-06-14T07:32:48;21.94;94.49
13496;DHT22;6820;49.374;8.452;2023-06-14T07:36:51;22.06;94.69
13496;DHT22;6820;49.374;8.452;2023-06-14T07:40:53;22.17;94.24
13496;DHT22;6820;49.374;8.452;2023-06-14T07:44:54;22.24;93.55
13496;DHT22;6820;49.374;8.452;2023-06-14T07:48:56;22.33;94.20
13496;DHT22;6820;49.374;8.452;2023-06-14T07:52:58;22.46;93.50
13496;DHT22;6820;49.374;8.452;2023-06-14T07:57:00;22.57;92.56
13496;DHT22;6820;49.374;8.452;2023-06-14T08:01:02;22.69;91.76
13496;DHT22;6820;49.374;8.452;2023-06-14T08:05:08;22.79;90.81
13496;DHT22;6820;49.374;8.452;2023-06-14T08:09:11;22.81;89.72
13496;DHT22;6820;49.374;8.452;2023-06-14T08:13:14;22.88;90.22
13496;DHT22;6820;49.374;8.452;2023-06-14T08:17:15;23.01;90.52
13496;DHT22;6820;49.374;8.452;2023-06-14T08:21:17;23.16;89.87
13496;DHT22;6820;49.374;8.452;2023-06-14T08:25:19;23.31;90.23
13496;DHT22;6820;49.374;8.452;2023-06-14T08:29:20;23.41;89.64
13496;DHT22;6820;49.374;8.452;2023-06-14T08:33:22;23.45;89.19
13496;DHT22;6820;49.374;8.452;2023-06-14T08:37:24;23.50;89.19
13496;DHT22;6820;49.374;8.452;2023-06-14T08:41:26;23.54;89.00
13496;DHT22;6820;49.374;8.452;2023-06-14T08:45:30;23.67;89.29
13496;DHT22;6820;49.374;8.452;2023-06-14T08:49:33;23.79;89.15
13496;DHT22;6820;49.374;8.452;2023-06-14T08:53:36;23.90;86.86
13496;DHT22;6820;49.374;8.452;2023-06-14T08:57:43;24.00;85.32
13496;DHT22;6820;49.374;8.452;2023-06-14T09:01:46;24.04;84.83
13496;DHT22;6820;49.374;8.452;2023-06-14T09:06:09;24.11;84.33
13496;DHT22;6820;49.374;8.452;2023-06-14T09:10:15;24.16;83.29
13496;DHT22;6820;49.374;8.452;2023-06-14T09:14:21;24.27;83.19
13496;DHT22;6820;49.374;8.452;2023-06-14T09:18:33;24.34;83.29
13496;DHT22;6820;49.374;8.452;2023-06-14T09:22:36;24.45;83.35
13496;DHT22;6820;49.374;8.452;2023-06-14T09:26:39;24.55;83.25
13496;DHT22;6820;49.374;8.452;2023-06-14T09:30:41;24.55;80.66
13496;DHT22;6820;49.374;8.452;2023-06-14T09:34:43;24.64;77.19
13496;DHT22;6820;49.374;8.452;2023-06-14T09:38:56;24.68;79.83
13496;DHT22;6820;49.374;8.452;2023-06-14T09:43:06;24.83;80.63
13496;DHT22;6820;49.374;8.452;2023-06-14T09:47:11;24.94;80.79
13496;DHT22;6820;49.374;8.452;2023-06-14T09:51:13;25.04;80.09
13496;DHT22;6820;49.374;8.452;2023-06-14T09:55:17;25.01;79.90
13496;DHT22;6820;49.374;8.452;2023-06-14T09:59:22;25.05;80.69
13496;DHT22;6820;49.374;8.452;2023-06-14T10:03:32;25.19;80.09
13496;DHT22;6820;49.374;8.452;2023-06-14T10:08:04;25.35;80.15
13496;DHT22;6820;49.374;8.452;2023-06-14T10:12:09;25.41;79.22
13496;DHT22;6820;49.374;8.452;2023-06-14T10:28:37;25.61;78.99
13496;DHT22;6820;49.374;8.452;2023-06-14T10:33:02;25.69;79.97
13496;DHT22;6820;49.374;8.452;2023-06-14T10:37:12;25.81;78.59
13496;DHT22;6820;49.374;8.452;2023-06-14T10:41:15;25.97;78.75
13496;DHT22;6820;49.374;8.452;2023-06-14T10:45:18;26.09;78.05
13496;DHT22;6820;49.374;8.452;2023-06-14T10:49:19;26.16;78.71
13496;DHT22;6820;49.374;8.452;2023-06-14T10:53:41;26.29;78.41
13496;DHT22;6820;49.374;8.452;2023-06-14T10:57:53;26.34;77.48
13496;DHT22;6820;49.374;8.452;2023-06-14T11:06:22;26.75;77.05
13496;DHT22;6820;49.374;8.452;2023-06-14T11:10:36;26.72;77.01
13496;DHT22;6820;49.374;8.452;2023-06-14T11:14:42;26.81;76.95
13496;DHT22;6820;49.374;8.452;2023-06-14T11:18:48;27.02;75.23
13496;DHT22;6820;49.374;8.452;2023-06-14T11:22:50;27.12;74.70
13496;DHT22;6820;49.374;8.452;2023-06-14T11:26:52;27.31;75.20
13496;DHT22;6820;49.374;8.452;2023-06-14T11:31:01;27.30;76.15
13496;DHT22;6820;49.374;8.452;2023-06-14T11:35:05;27.46;75.85
13496;DHT22;6820;49.374;8.452;2023-06-14T11:39:08;27.74;75.56
13496;DHT22;6820;49.374;8.452;2023-06-14T11:43:17;27.50;74.79
13496;DHT22;6820;49.374;8.452;2023-06-14T11:47:20;27.61;74.33
13496;DHT22;6820;49.374;8.452;2023-06-14T11:51:24;27.63;74.53
13496;DHT22;6820;49.374;8.452;2023-06-14T11:55:26;27.55;74.13
13496;DHT22;6820;49.374;8.452;2023-06-14T11:59:27;27.55;73.83
13496;DHT22;6820;49.374;8.452;2023-06-14T12:03:29;27.69;74.13
13496;DHT22;6820;49.374;8.452;2023-06-14T12:07:31;27.48;74.93
13496;DHT22;6820;49.374;8.452;2023-06-14T12:11:34;27.12;75.12
13496;DHT22;6820;49.374;8.452;2023-06-14T12:15:37;27.25;74.60
13496;DHT22;6820;49.374;8.452;2023-06-14T12:19:42;27.71;73.68
13496;DHT22;6820;49.374;8.452;2023-06-14T12:23:48;28.08;73.54
13496;DHT22;6820;49.374;8.452;2023-06-14T12:27:51;27.93;73.37
13496;DHT22;6820;49.374;8.452;2023-06-14T12:31:53;28.09;75.09
13496;DHT22;6820;49.374;8.452;2023-06-14T12:35:57;28.60;73.27
13496;DHT22;6820;49.374;8.452;2023-06-14T12:39:59;28.95;73.79
13496;DHT22;6820;49.374;8.452;2023-06-14T12:44:01;29.26;72.74
13496;DHT22;6820;49.374;8.452;2023-06-14T12:48:05;29.51;72.50
13496;DHT22;6820;49.374;8.452;2023-06-14T12:52:07;29.99;72.67
13496;DHT22;6820;49.374;8.452;2023-06-14T12:56:09;30.04;71.71
13496;DHT22;6820;49.374;8.452;2023-06-14T13:00:10;30.23;71.22
13496;DHT22;6820;49.374;8.452;2023-06-14T13:04:14;30.40;70.89
13496;DHT22;6820;49.374;8.452;2023-06-14T13:08:16;30.32;69.87
13496;DHT22;6820;49.374;8.452;2023-06-14T13:12:18;29.91;70.98
13496;DHT22;6820;49.374;8.452;2023-06-14T13:16:20;30.22;70.83
13496;DHT22;6820;49.374;8.452;2023-06-14T13:20:21;30.72;70.69
13496;DHT22;6820;49.374;8.452;2023-06-14T13:24:23;30.44;70.62
13496;DHT22;6820;49.374;8.452;2023-06-14T13:28:25;29.76;72.42
13496;DHT22;6820;49.374;8.452;2023-06-14T13:32:27;29.33;74.01
13496;DHT22;6820;49.374;8.452;2023-06-14T13:36:29;28.92;72.50
13496;DHT22;6820;49.374;8.452;2023-06-14T13:40:31;28.72;72.93
13496;DHT22;6820;49.374;8.452;2023-06-14T13:44:33;29.76;71.78
13496;DHT22;6820;49.374;8.452;2023-06-14T13:48:34;30.22;71.06
13496;DHT22;6820;49.374;8.452;2023-06-14T13:52:36;30.75;71.48
13496;DHT22;6820;49.374;8.452;2023-06-14T13:56:41;30.96;69.84
13496;DHT22;6820;49.374;8.452;2023-06-14T14:00:43;30.34;70.29
13496;DHT22;6820;49.374;8.452;2023-06-14T14:04:58;29.81;70.69
13496;DHT22;6820;49.374;8.452;2023-06-14T14:09:16;29.99;70.86
13496;DHT22;6820;49.374;8.452;2023-06-14T14:13:26;30.90;70.04
13496;DHT22;6820;49.374;8.452;2023-06-14T14:17:28;30.66;70.39
13496;DHT22;6820;49.374;8.452;2023-06-14T14:21:38;30.22;71.51
13496;DHT22;6820;49.374;8.452;2023-06-14T14:25:49;29.74;71.67
13496;DHT22;6820;49.374;8.452;2023-06-14T14:29:59;29.44;72.53
13496;DHT22;6820;49.374;8.452;2023-06-14T14:34:04;29.48;72.86
13496;DHT22;6820;49.374;8.452;2023-06-14T14:38:12;30.54;71.78
13496;DHT22;6820;49.374;8.452;2023-06-14T14:42:38;31.22;69.97
13496;DHT22;6820;49.374;8.452;2023-06-14T14:46:49;31.49;69.48
13496;DHT22;6820;49.374;8.452;2023-06-14T14:50:53;31.78;68.37
13496;DHT22;6820;49.374;8.452;2023-06-14T14:54:55;31.42;69.02
13496;DHT22;6820;49.374;8.452;2023-06-14T14:59:00;30.49;69.93
13496;DHT22;6820;49.374;8.452;2023-06-14T15:03:05;30.30;70.26
13496;DHT22;6820;49.374;8.452;2023-06-14T15:07:23;30.26;70.98
13496;DHT22;6820;49.374;8.452;2023-06-14T15:11:29;30.85;69.02
13496;DHT22;6820;49.374;8.452;2023-06-14T15:15:30;31.35;68.07
13496;DHT22;6820;49.374;8.452;2023-06-14T15:19:35;31.88;68.01
13496;DHT22;6820;49.374;8.452;2023-06-14T15:23:46;32.06;67.61
13496;DHT22;6820;49.374;8.452;2023-06-14T15:27:48;31.90;69.08
13496;DHT22;6820;49.374;8.452;2023-06-14T15:31:53;32.07;69.27
13496;DHT22;6820;49.374;8.452;2023-06-14T15:35:59;32.28;68.59
13496;DHT22;6820;49.374;8.452;2023-06-14T15:40:06;31.46;69.05
13496;DHT22;6820;49.374;8.452;2023-06-14T15:44:09;30.60;70.32
13496;DHT22;6820;49.374;8.452;2023-06-14T15:48:11;30.67;70.95
13496;DHT22;6820;49.374;8.452;2023-06-14T15:52:13;30.96;70.92
13496;DHT22;6820;49.374;8.452;2023-06-14T15:56:18;31.32;70.78
13496;DHT22;6820;49.374;8.452;2023-06-14T16:00:27;31.49;68.40
13496;DHT22;6820;49.374;8.452;2023-06-14T16:04:32;31.57;67.48
13496;DHT22;6820;49.374;8.452;2023-06-14T16:08:37;31.65;65.81
13496;DHT22;6820;49.374;8.452;2023-06-14T16:12:42;31.98;66.76
13496;DHT22;6820;49.374;8.452;2023-06-14T16:16:46;32.25;67.12
13496;DHT22;6820;49.374;8.452;2023-06-14T16:20:51;32.36;66.60
13496;DHT22;6820;49.374;8.452;2023-06-14T16:24:56;31.91;67.44
13496;DHT22;6820;49.374;8.452;2023-06-14T16:28:58;31.69;68.30
13496;DHT22;6820;49.374;8.452;2023-06-14T16:33:00;30.83;69.12
13496;DHT22;6820;49.374;8.452;2023-06-14T16:37:05;30.28;70.53
13496;DHT22;6820;49.374;8.452;2023-06-14T16:41:12;29.66;70.98
13496;DHT22;6820;49.374;8.452;2023-06-14T16:45:15;29.89;71.06
13496;DHT22;6820;49.374;8.452;2023-06-14T16:49:17;30.45;70.17
13496;DHT22;6820;49.374;8.452;2023-06-14T16:53:28;30.83;69.68
13496;DHT22;6820;49.374;8.452;2023-06-14T16:57:33;30.75;68.85
13496;DHT22;6820;49.374;8.452;2023-06-14T17:01:40;30.61;69.45
13496;DHT22;6820;49.374;8.452;2023-06-14T17:06:05;30.44;69.97
13496;DHT22;6820;49.374;8.452;2023-06-14T17:10:12;30.26;70.17
13496;DHT22;6820;49.374;8.452;2023-06-14T17:14:15;30.26;70.30
13496;DHT22;6820;49.374;8.452;2023-06-14T17:18:17;30.15;70.50
13496;DHT22;6820;49.374;8.452;2023-06-14T17:22:19;29.58;70.10
13496;DHT22;6820;49.374;8.452;2023-06-14T17:26:24;29.14;71.09
13496;DHT22;6820;49.374;8.452;2023-06-14T17:30:29;29.02;72.83
13496;DHT22;6820;49.374;8.452;2023-06-14T17:34:31;28.77;72.83
13496;DHT22;6820;49.374;8.452;2023-06-14T17:38:33;28.51;72.58
13496;DHT22;6820;49.374;8.452;2023-06-14T17:42:39;28.18;73.00
13496;DHT22;6820;49.374;8.452;2023-06-14T17:46:44;28.01;74.26
13496;DHT22;6820;49.374;8.452;2023-06-14T17:50:46;27.87;75.45
13496;DHT22;6820;49.374;8.452;2023-06-14T17:54:50;27.65;75.78
13496;DHT22;6820;49.374;8.452;2023-06-14T17:58:56;27.48;75.81
13496;DHT22;6820;49.374;8.452;2023-06-14T18:03:09;27.25;76.21
13496;DHT22;6820;49.374;8.452;2023-06-14T18:07:13;27.09;76.45
13496;DHT22;6820;49.374;8.452;2023-06-14T18:11:18;26.93;76.48
13496;DHT22;6820;49.374;8.452;2023-06-14T18:15:20;26.86;76.81
13496;DHT22;6820;49.374;8.452;2023-06-14T18:19:25;26.72;76.81
13496;DHT22;6820;49.374;8.452;2023-06-14T18:23:30;26.60;76.75
13496;DHT22;6820;49.374;8.452;2023-06-14T18:27:43;26.47;76.75
13496;DHT22;6820;49.374;8.452;2023-06-14T18:31:55;26.39;77.19
13496;DHT22;6820;49.374;8.452;2023-06-14T18:35:58;26.35;77.68
13496;DHT22;6820;49.374;8.452;2023-06-14T18:40:00;26.31;77.68
13496;DHT22;6820;49.374;8.452;2023-06-14T18:44:04;26.16;77.88
13496;DHT22;6820;49.374;8.452;2023-06-14T18:48:10;26.11;77.62
13496;DHT22;6820;49.374;8.452;2023-06-14T18:52:17;26.03;77.82
13496;DHT22;6820;49.374;8.452;2023-06-14T18:56:26;25.97;78.02
13496;DHT22;6820;49.374;8.452;2023-06-14T19:00:31;25.94;78.16
13496;DHT22;6820;49.374;8.452;2023-06-14T19:04:36;25.85;78.05
13496;DHT22;6820;49.374;8.452;2023-06-14T19:08:38;25.78;78.55
13496;DHT22;6820;49.374;8.452;2023-06-14T19:12:45;25.72;78.95
13496;DHT22;6820;49.374;8.452;2023-06-14T19:16:46;25.66;79.28
13496;DHT22;6820;49.374;8.452;2023-06-14T19:20:53;25.64;79.28
13496;DHT22;6820;49.374;8.452;2023-06-14T19:25:00;25.57;79.48
13496;DHT22;6820;49.374;8.452;2023-06-14T19:29:07;25.46;79.78
13496;DHT22;6820;49.374;8.452;2023-06-14T19:33:11;25.42;79.82
13496;DHT22;6820;49.374;8.452;2023-06-14T19:37:14;25.34;79.91
13496;DHT22;6820;49.374;8.452;2023-06-14T19:41:19;25.31;80.11
13496;DHT22;6820;49.374;8.452;2023-06-14T19:45:26;25.27;80.21
13496;DHT22;6820;49.374;8.452;2023-06-14T19:49:31;25.20;80.55
13496;DHT22;6820;49.374;8.452;2023-06-14T19:53:36;25.12;80.94
13496;DHT22;6820;49.374;8.452;2023-06-14T19:57:43;25.02;80.85
13496;DHT22;6820;49.374;8.452;2023-06-14T20:01:55;24.93;80.88
13496;DHT22;6820;49.374;8.452;2023-06-14T20:06:00;24.86;80.88
13496;DHT22;6820;49.374;8.452;2023-06-14T20:10:07;24.83;81.09
13496;DHT22;6820;49.374;8.452;2023-06-14T20:14:13;24.80;81.09
13496;DHT22;6820;49.374;8.452;2023-06-14T20:18:17;24.71;81.02
13496;DHT22;6820;49.374;8.452;2023-06-14T20:22:21;24.66;81.23
13496;DHT22;6820;49.374;8.452;2023-06-14T20:26:26;24.53;81.32
13496;DHT22;6820;49.374;8.452;2023-06-14T20:30:29;24.51;81.66
13496;DHT22;6820;49.374;8.452;2023-06-14T20:34:34;24.49;81.86
13496;DHT22;6820;49.374;8.452;2023-06-14T20:38:39;24.49;82.06
13496;DHT22;6820;49.374;8.452;2023-06-14T20:42:42;24.46;82.35
13496;DHT22;6820;49.374;8.452;2023-06-14T20:46:47;24.39;82.76
13496;DHT22;6820;49.374;8.452;2023-06-14T20:50:54;24.31;83.15
13496;DHT22;6820;49.374;8.452;2023-06-14T20:54:59;24.26;83.69
13496;DHT22;6820;49.374;8.452;2023-06-14T20:59:09;24.23;84.09
13496;DHT22;6820;49.374;8.452;2023-06-14T21:03:14;24.15;84.29
13496;DHT22;6820;49.374;8.452;2023-06-14T21:07:16;24.06;84.48
13496;DHT22;6820;49.374;8.452;2023-06-14T21:11:18;24.02;84.43
13496;DHT22;6820;49.374;8.452;2023-06-14T21:15:24;23.93;84.53
13496;DHT22;6820;49.374;8.452;2023-06-14T21:19:34;23.84;84.72
13496;DHT22;6820;49.374;8.452;2023-06-14T21:23:44;23.81;84.86
13496;DHT22;6820;49.374;8.452;2023-06-14T21:27:46;23.75;85.06
13496;DHT22;6820;49.374;8.452;2023-06-14T21:31:56;23.64;85.46
13496;DHT22;6820;49.374;8.452;2023-06-14T21:36:05;23.63;85.66
13496;DHT22;6820;49.374;8.452;2023-06-14T21:40:07;23.50;85.96
13496;DHT22;6820;49.374;8.452;2023-06-14T21:44:09;23.38;86.40
13496;DHT22;6820;49.374;8.452;2023-06-14T21:48:14;23.23;86.64
13496;DHT22;6820;49.374;8.452;2023-06-14T21:52:23;23.15;86.74
13496;DHT22;6820;49.374;8.452;2023-06-14T21:56:28;23.03;86.79
13496;DHT22;6820;49.374;8.452;2023-06-14T22:00:33;22.94;86.88
13496;DHT22;6820;49.374;8.452;2023-06-14T22:04:41;22.91;87.08
13496;DHT22;6820;49.374;8.452;2023-06-14T22:08:45;22.85;87.23
13496;DHT22;6820;49.374;8.452;2023-06-14T22:12:49;22.79;87.52
13496;DHT22;6820;49.374;8.452;2023-06-14T22:17:01;22.75;87.73
13496;DHT22;6820;49.374;8.452;2023-06-14T22:21:17;22.69;87.62
13496;DHT22;6820;49.374;8.452;2023-06-14T22:25:26;22.66;87.82
13496;DHT22;6820;49.374;8.452;2023-06-14T22:29:49;22.63;87.96
13496;DHT22;6820;49.374;8.452;2023-06-14T22:34:03;22.59;88.06
13496;DHT22;6820;49.374;8.452;2023-06-14T22:38:05;22.46;88.26
13496;DHT22;6820;49.374;8.452;2023-06-14T22:42:10;22.42;88.37
13496;DHT22;6820;49.374;8.452;2023-06-14T22:46:18;22.39;88.71
13496;DHT22;6820;49.374;8.452;2023-06-14T22:50:33;22.38;88.90
13496;DHT22;6820;49.374;8.452;2023-06-14T22:54:35;22.38;89.20
13496;DHT22;6820;49.374;8.452;2023-06-14T22:58:37;22.38;89.40
13496;DHT22;6820;49.374;8.452;2023-06-14T23:02:41;22.31;89.51
13496;DHT22;6820;49.374;8.452;2023-06-14T23:06:48;22.26;89.51
13496;DHT22;6820;49.374;8.452;2023-06-14T23:10:53;22.20;89.51
13496;DHT22;6820;49.374;8.452;2023-06-14T23:14:56;22.08;89.65
13496;DHT22;6820;49.374;8.452;2023-06-14T23:19:06;22.02;89.35
13496;DHT22;6820;49.374;8.452;2023-06-14T23:23:13;22.02;89.45
13496;DHT22;6820;49.374;8.452;2023-06-14T23:27:18;22.01;89.85
13496;DHT22;6820;49.374;8.452;2023-06-14T23:31:25;21.93;89.85
13496;DHT22;6820;49.374;8.452;2023-06-14T23:35:30;21.86;89.89
13496;DHT22;6820;49.374;8.452;2023-06-14T23:39:33;21.82;90.29
13496;DHT22;6820;49.374;8.452;2023-06-14T23:44:10;21.73;89.99
13496;DHT22;6820;49.374;8.452;2023-06-14T23:48:23;21.70;90.44
13496;DHT22;6820;49.374;8.452;2023-06-14T23:52:30;21.66;91.24
13496;DHT22;6820;49.374;8.452;2023-06-14T23:56:35;21.58;91.53
